sensor_id;sensor_type;location;lat;lon;timestamp;P1;durP1;ratioP1;P2;durP2;ratioP2
13485;SDS011;6815;59.336;17.998;2023-03-14T00:00:57;2.23;;;0.90;;
13485;SDS011;6815;59.336;17.998;2023-03-14T00:03:22;2.97;;;1.17;;
13485;SDS011;6815;59.336;17.998;2023-03-14T00:05:48;1.83;;;1.00;;
13485;SDS011;6815;59.336;17.998;2023-03-14T00:08:13;3.47;;;1.30;;
13485;SDS011;6815;59.336;17.998;2023-03-14T00:10:39;4.73;;;1.30;;
13485;SDS011;6815;59.336;17.998;2023-03-14T00:13:05;5.93;;;1.50;;
13485;SDS011;6815;59.336;17.998;2023-03-14T00:15:31;2.50;;;1.10;;
13485;SDS011;6815;59.336;17.998;2023-03-14T00:17:58;3.80;;;1.17;;
13485;SDS011;6815;59.336;17.998;2023-03-14T00:20:23;1.70;;;1.30;;
13485;SDS011;6815;59.336;17.998;2023-03-14T00:22:49;1.40;;;1.13;;
13485;SDS011;6815;59.336;17.998;2023-03-14T00:25:15;5.03;;;1.70;;
13485;SDS011;6815;59.336;17.998;2023-03-14T00:27:40;3.07;;;1.30;;
13485;SDS011;6815;59.336;17.998;2023-03-14T00:30:06;3.43;;;1.53;;
13485;SDS011;6815;59.336;17.998;2023-03-14T00:32:33;3.60;;;1.50;;
13485;SDS011;6815;59.336;17.998;2023-03-14T00:34:58;3.43;;;1.10;;
13485;SDS011;6815;59.336;17.998;2023-03-14T00:37:25;5.87;;;1.20;;
13485;SDS011;6815;59.336;17.998;2023-03-14T00:39:51;2.57;;;1.13;;
13485;SDS011;6815;59.336;17.998;2023-03-14T00:42:18;4.93;;;1.13;;
13485;SDS011;6815;59.336;17.998;2023-03-14T00:44:43;3.80;;;1.30;;
13485;SDS011;6815;59.336;17.998;2023-03-14T00:47:09;2.47;;;1.03;;
13485;SDS011;6815;59.336;17.998;2023-03-14T00:49:34;3.70;;;1.10;;
13485;SDS011;6815;59.336;17.998;2023-03-14T00:52:01;3.10;;;1.00;;
13485;SDS011;6815;59.336;17.998;2023-03-14T00:54:26;2.17;;;0.93;;
13485;SDS011;6815;59.336;17.998;2023-03-14T00:56:52;2.60;;;1.00;;
13485;SDS011;6815;59.336;17.998;2023-03-14T00:59:17;3.67;;;1.10;;
13485;SDS011;6815;59.336;17.998;2023-03-14T01:01:43;2.33;;;1.20;;
13485;SDS011;6815;59.336;17.998;2023-03-14T01:04:09;2.40;;;1.00;;
13485;SDS011;6815;59.336;17.998;2023-03-14T01:06:35;1.40;;;0.87;;
13485;SDS011;6815;59.336;17.998;2023-03-14T01:09:01;4.30;;;1.00;;
13485;SDS011;6815;59.336;17.998;2023-03-14T01:11:28;1.80;;;0.83;;
13485;SDS011;6815;59.336;17.998;2023-03-14T01:13:56;3.60;;;1.00;;
13485;SDS011;6815;59.336;17.998;2023-03-14T01:16:23;3.57;;;1.30;;
13485;SDS011;6815;59.336;17.998;2023-03-14T01:18:50;3.17;;;1.03;;
13485;SDS011;6815;59.336;17.998;2023-03-14T01:21:18;3.40;;;1.47;;
13485;SDS011;6815;59.336;17.998;2023-03-14T01:23:49;1.93;;;0.90;;
13485;SDS011;6815;59.336;17.998;2023-03-14T01:26:16;4.70;;;1.07;;
13485;SDS011;6815;59.336;17.998;2023-03-14T01:28:46;4.43;;;1.13;;
13485;SDS011;6815;59.336;17.998;2023-03-14T01:31:12;2.77;;;1.00;;
13485;SDS011;6815;59.336;17.998;2023-03-14T01:33:38;2.53;;;1.00;;
13485;SDS011;6815;59.336;17.998;2023-03-14T01:36:05;4.03;;;0.80;;
13485;SDS011;6815;59.336;17.998;2023-03-14T01:38:32;2.80;;;0.93;;
13485;SDS011;6815;59.336;17.998;2023-03-14T01:40:58;2.77;;;1.00;;
13485;SDS011;6815;59.336;17.998;2023-03-14T01:43:24;4.77;;;1.33;;
13485;SDS011;6815;59.336;17.998;2023-03-14T01:49:17;2.13;;;0.70;;
13485;SDS011;6815;59.336;17.998;2023-03-14T01:53:59;2.20;;;0.90;;
13485;SDS011;6815;59.336;17.998;2023-03-14T01:56:55;2.77;;;0.80;;
13485;SDS011;6815;59.336;17.998;2023-03-14T01:59:26;2.37;;;0.83;;
13485;SDS011;6815;59.336;17.998;2023-03-14T02:01:55;1.23;;;0.70;;
13485;SDS011;6815;59.336;17.998;2023-03-14T02:04:21;1.53;;;0.80;;
13485;SDS011;6815;59.336;17.998;2023-03-14T02:06:49;2.10;;;0.90;;
13485;SDS011;6815;59.336;17.998;2023-03-14T02:09:18;1.57;;;0.80;;
13485;SDS011;6815;59.336;17.998;2023-03-14T02:11:45;1.50;;;0.70;;
13485;SDS011;6815;59.336;17.998;2023-03-14T02:14:14;1.70;;;0.73;;
13485;SDS011;6815;59.336;17.998;2023-03-14T02:16:46;1.43;;;0.60;;
13485;SDS011;6815;59.336;17.998;2023-03-14T02:19:11;2.20;;;0.50;;
13485;SDS011;6815;59.336;17.998;2023-03-14T02:22:25;2.37;;;0.83;;
13485;SDS011;6815;59.336;17.998;2023-03-14T02:24:43;1.67;;;0.70;;
13485;SDS011;6815;59.336;17.998;2023-03-14T02:27:16;1.67;;;0.83;;
13485;SDS011;6815;59.336;17.998;2023-03-14T02:29:45;2.83;;;0.60;;
13485;SDS011;6815;59.336;17.998;2023-03-14T02:32:34;2.80;;;0.70;;
13485;SDS011;6815;59.336;17.998;2023-03-14T02:35:05;2.53;;;0.83;;
13485;SDS011;6815;59.336;17.998;2023-03-14T02:37:42;2.20;;;0.90;;
13485;SDS011;6815;59.336;17.998;2023-03-14T02:40:13;1.13;;;0.60;;
13485;SDS011;6815;59.336;17.998;2023-03-14T02:42:38;0.67;;;0.50;;
13485;SDS011;6815;59.336;17.998;2023-03-14T02:47:40;3.33;;;0.90;;
13485;SDS011;6815;59.336;17.998;2023-03-14T02:50:10;2.60;;;0.80;;
13485;SDS011;6815;59.336;17.998;2023-03-14T02:52:45;1.57;;;0.70;;
13485;SDS011;6815;59.336;17.998;2023-03-14T02:55:11;3.67;;;1.10;;
13485;SDS011;6815;59.336;17.998;2023-03-14T02:57:36;2.60;;;0.93;;
13485;SDS011;6815;59.336;17.998;2023-03-14T03:00:02;3.97;;;0.77;;
13485;SDS011;6815;59.336;17.998;2023-03-14T03:02:31;2.50;;;0.80;;
13485;SDS011;6815;59.336;17.998;2023-03-14T03:04:57;3.57;;;1.10;;
13485;SDS011;6815;59.336;17.998;2023-03-14T03:07:23;1.93;;;0.80;;
13485;SDS011;6815;59.336;17.998;2023-03-14T03:09:49;1.93;;;0.73;;
13485;SDS011;6815;59.336;17.998;2023-03-14T03:12:14;6.17;;;0.90;;
13485;SDS011;6815;59.336;17.998;2023-03-14T03:14:40;2.83;;;0.80;;
13485;SDS011;6815;59.336;17.998;2023-03-14T03:17:05;2.23;;;0.87;;
13485;SDS011;6815;59.336;17.998;2023-03-14T03:19:33;2.83;;;0.90;;
13485;SDS011;6815;59.336;17.998;2023-03-14T03:21:59;2.53;;;0.80;;
13485;SDS011;6815;59.336;17.998;2023-03-14T03:24:25;1.90;;;0.50;;
13485;SDS011;6815;59.336;17.998;2023-03-14T03:26:51;3.17;;;0.80;;
13485;SDS011;6815;59.336;17.998;2023-03-14T03:29:16;2.40;;;0.80;;
13485;SDS011;6815;59.336;17.998;2023-03-14T03:31:42;1.50;;;0.70;;
13485;SDS011;6815;59.336;17.998;2023-03-14T03:34:07;3.47;;;1.07;;
13485;SDS011;6815;59.336;17.998;2023-03-14T03:36:33;1.37;;;0.53;;
13485;SDS011;6815;59.336;17.998;2023-03-14T03:38:59;2.23;;;0.60;;
13485;SDS011;6815;59.336;17.998;2023-03-14T03:41:24;1.03;;;0.60;;
13485;SDS011;6815;59.336;17.998;2023-03-14T03:43:50;1.37;;;0.47;;
13485;SDS011;6815;59.336;17.998;2023-03-14T03:46:15;1.30;;;0.63;;
13485;SDS011;6815;59.336;17.998;2023-03-14T03:48:41;0.70;;;0.57;;
13485;SDS011;6815;59.336;17.998;2023-03-14T03:51:10;1.67;;;0.70;;
13485;SDS011;6815;59.336;17.998;2023-03-14T03:53:37;1.30;;;0.67;;
13485;SDS011;6815;59.336;17.998;2023-03-14T03:56:03;1.40;;;0.70;;
13485;SDS011;6815;59.336;17.998;2023-03-14T03:58:29;1.33;;;0.50;;
13485;SDS011;6815;59.336;17.998;2023-03-14T04:00:54;1.23;;;0.50;;
13485;SDS011;6815;59.336;17.998;2023-03-14T04:03:20;0.87;;;0.60;;
13485;SDS011;6815;59.336;17.998;2023-03-14T04:05:45;3.10;;;0.70;;
13485;SDS011;6815;59.336;17.998;2023-03-14T04:08:11;3.93;;;0.73;;
13485;SDS011;6815;59.336;17.998;2023-03-14T04:10:36;2.23;;;0.60;;
13485;SDS011;6815;59.336;17.998;2023-03-14T04:13:02;2.23;;;0.60;;
13485;SDS011;6815;59.336;17.998;2023-03-14T04:15:27;1.17;;;0.70;;
13485;SDS011;6815;59.336;17.998;2023-03-14T04:17:56;0.60;;;0.60;;
13485;SDS011;6815;59.336;17.998;2023-03-14T04:20:23;0.57;;;0.57;;
13485;SDS011;6815;59.336;17.998;2023-03-14T04:22:49;1.30;;;1.10;;
13485;SDS011;6815;59.336;17.998;2023-03-14T04:25:14;2.50;;;0.90;;
13485;SDS011;6815;59.336;17.998;2023-03-14T04:27:42;1.77;;;0.80;;
13485;SDS011;6815;59.336;17.998;2023-03-14T04:30:09;2.00;;;0.80;;
13485;SDS011;6815;59.336;17.998;2023-03-14T04:32:35;1.00;;;0.70;;
13485;SDS011;6815;59.336;17.998;2023-03-14T04:35:00;0.70;;;0.67;;
13485;SDS011;6815;59.336;17.998;2023-03-14T04:37:26;1.40;;;0.90;;
13485;SDS011;6815;59.336;17.998;2023-03-14T04:39:51;2.50;;;0.60;;
13485;SDS011;6815;59.336;17.998;2023-03-14T04:42:16;3.00;;;0.90;;
13485;SDS011;6815;59.336;17.998;2023-03-14T04:44:42;2.30;;;0.83;;
13485;SDS011;6815;59.336;17.998;2023-03-14T04:47:08;2.20;;;1.00;;
13485;SDS011;6815;59.336;17.998;2023-03-14T04:49:33;2.53;;;0.90;;
13485;SDS011;6815;59.336;17.998;2023-03-14T04:51:59;5.47;;;1.10;;
13485;SDS011;6815;59.336;17.998;2023-03-14T04:54:24;4.57;;;1.00;;
13485;SDS011;6815;59.336;17.998;2023-03-14T04:56:50;1.13;;;0.70;;
13485;SDS011;6815;59.336;17.998;2023-03-14T04:59:15;1.83;;;0.80;;
13485;SDS011;6815;59.336;17.998;2023-03-14T05:01:40;1.03;;;0.63;;
13485;SDS011;6815;59.336;17.998;2023-03-14T05:04:06;1.40;;;0.80;;
13485;SDS011;6815;59.336;17.998;2023-03-14T05:06:31;2.37;;;1.10;;
13485;SDS011;6815;59.336;17.998;2023-03-14T05:08:59;2.87;;;1.20;;
13485;SDS011;6815;59.336;17.998;2023-03-14T05:11:24;3.60;;;1.07;;
13485;SDS011;6815;59.336;17.998;2023-03-14T05:13:50;3.50;;;1.20;;
13485;SDS011;6815;59.336;17.998;2023-03-14T05:16:17;1.83;;;0.93;;
13485;SDS011;6815;59.336;17.998;2023-03-14T05:18:42;1.97;;;1.00;;
13485;SDS011;6815;59.336;17.998;2023-03-14T05:21:08;2.40;;;1.00;;
13485;SDS011;6815;59.336;17.998;2023-03-14T05:23:40;3.57;;;1.33;;
13485;SDS011;6815;59.336;17.998;2023-03-14T05:26:07;1.77;;;0.83;;
13485;SDS011;6815;59.336;17.998;2023-03-14T05:28:33;2.10;;;1.00;;
13485;SDS011;6815;59.336;17.998;2023-03-14T05:30:59;3.73;;;0.97;;
13485;SDS011;6815;59.336;17.998;2023-03-14T05:33:25;1.43;;;0.70;;
13485;SDS011;6815;59.336;17.998;2023-03-14T05:35:56;2.57;;;0.90;;
13485;SDS011;6815;59.336;17.998;2023-03-14T05:38:22;3.07;;;1.10;;
13485;SDS011;6815;59.336;17.998;2023-03-14T05:40:47;2.63;;;0.87;;
13485;SDS011;6815;59.336;17.998;2023-03-14T05:43:13;2.73;;;1.07;;
13485;SDS011;6815;59.336;17.998;2023-03-14T05:45:40;3.10;;;0.97;;
13485;SDS011;6815;59.336;17.998;2023-03-14T05:48:06;2.60;;;0.90;;
13485;SDS011;6815;59.336;17.998;2023-03-14T05:50:31;3.13;;;0.80;;
13485;SDS011;6815;59.336;17.998;2023-03-14T05:52:57;2.20;;;0.97;;
13485;SDS011;6815;59.336;17.998;2023-03-14T05:55:25;4.10;;;0.90;;
13485;SDS011;6815;59.336;17.998;2023-03-14T05:57:51;3.13;;;0.90;;
13485;SDS011;6815;59.336;17.998;2023-03-14T06:00:18;5.43;;;1.40;;
13485;SDS011;6815;59.336;17.998;2023-03-14T06:02:43;4.53;;;1.30;;
13485;SDS011;6815;59.336;17.998;2023-03-14T06:05:09;2.37;;;0.60;;
13485;SDS011;6815;59.336;17.998;2023-03-14T06:07:36;2.97;;;1.20;;
13485;SDS011;6815;59.336;17.998;2023-03-14T06:10:02;5.27;;;1.30;;
13485;SDS011;6815;59.336;17.998;2023-03-14T06:12:28;2.80;;;0.87;;
13485;SDS011;6815;59.336;17.998;2023-03-14T06:14:53;3.63;;;1.20;;
13485;SDS011;6815;59.336;17.998;2023-03-14T06:17:19;2.57;;;0.90;;
13485;SDS011;6815;59.336;17.998;2023-03-14T06:19:44;5.10;;;1.50;;
13485;SDS011;6815;59.336;17.998;2023-03-14T06:22:10;3.60;;;1.07;;
13485;SDS011;6815;59.336;17.998;2023-03-14T06:24:35;4.83;;;1.03;;
13485;SDS011;6815;59.336;17.998;2023-03-14T06:27:01;3.30;;;1.20;;
13485;SDS011;6815;59.336;17.998;2023-03-14T06:29:28;3.33;;;1.00;;
13485;SDS011;6815;59.336;17.998;2023-03-14T06:31:54;2.10;;;0.90;;
13485;SDS011;6815;59.336;17.998;2023-03-14T06:34:20;4.27;;;1.00;;
13485;SDS011;6815;59.336;17.998;2023-03-14T06:36:46;3.17;;;1.20;;
13485;SDS011;6815;59.336;17.998;2023-03-14T06:39:11;2.80;;;1.00;;
13485;SDS011;6815;59.336;17.998;2023-03-14T06:41:37;5.03;;;0.90;;
13485;SDS011;6815;59.336;17.998;2023-03-14T06:44:03;5.73;;;1.73;;
13485;SDS011;6815;59.336;17.998;2023-03-14T06:46:28;3.87;;;1.07;;
13485;SDS011;6815;59.336;17.998;2023-03-14T06:48:54;3.47;;;1.10;;
13485;SDS011;6815;59.336;17.998;2023-03-14T06:51:19;2.93;;;0.90;;
13485;SDS011;6815;59.336;17.998;2023-03-14T06:53:44;5.63;;;1.00;;
13485;SDS011;6815;59.336;17.998;2023-03-14T06:56:11;4.90;;;1.60;;
13485;SDS011;6815;59.336;17.998;2023-03-14T06:58:37;5.57;;;1.00;;
13485;SDS011;6815;59.336;17.998;2023-03-14T07:01:02;4.83;;;1.00;;
13485;SDS011;6815;59.336;17.998;2023-03-14T07:03:28;3.77;;;1.13;;
13485;SDS011;6815;59.336;17.998;2023-03-14T07:05:54;5.07;;;1.00;;
13485;SDS011;6815;59.336;17.998;2023-03-14T07:08:20;5.13;;;1.00;;
13485;SDS011;6815;59.336;17.998;2023-03-14T07:10:45;2.00;;;0.90;;
13485;SDS011;6815;59.336;17.998;2023-03-14T07:13:11;3.27;;;1.00;;
13485;SDS011;6815;59.336;17.998;2023-03-14T07:15:36;5.37;;;1.27;;
13485;SDS011;6815;59.336;17.998;2023-03-14T07:18:02;6.60;;;1.17;;
13485;SDS011;6815;59.336;17.998;2023-03-14T07:20:27;2.67;;;1.10;;
13485;SDS011;6815;59.336;17.998;2023-03-14T07:22:54;2.57;;;1.17;;
13485;SDS011;6815;59.336;17.998;2023-03-14T07:25:20;3.53;;;0.87;;
13485;SDS011;6815;59.336;17.998;2023-03-14T07:27:46;4.53;;;0.80;;
13485;SDS011;6815;59.336;17.998;2023-03-14T07:30:13;2.93;;;0.87;;
13485;SDS011;6815;59.336;17.998;2023-03-14T07:32:39;2.77;;;0.70;;
13485;SDS011;6815;59.336;17.998;2023-03-14T07:35:04;4.87;;;0.90;;
13485;SDS011;6815;59.336;17.998;2023-03-14T07:37:30;3.40;;;1.00;;
13485;SDS011;6815;59.336;17.998;2023-03-14T07:39:56;2.30;;;0.60;;
13485;SDS011;6815;59.336;17.998;2023-03-14T07:42:22;2.33;;;0.60;;
13485;SDS011;6815;59.336;17.998;2023-03-14T07:44:47;2.33;;;0.53;;
13485;SDS011;6815;59.336;17.998;2023-03-14T07:47:12;0.80;;;0.60;;
13485;SDS011;6815;59.336;17.998;2023-03-14T07:49:38;1.57;;;0.67;;
13485;SDS011;6815;59.336;17.998;2023-03-14T07:52:03;0.97;;;0.50;;
13485;SDS011;6815;59.336;17.998;2023-03-14T07:54:29;1.47;;;0.43;;
13485;SDS011;6815;59.336;17.998;2023-03-14T07:56:58;1.20;;;0.63;;
13485;SDS011;6815;59.336;17.998;2023-03-14T07:59:25;1.87;;;0.70;;
13485;SDS011;6815;59.336;17.998;2023-03-14T08:01:51;0.83;;;0.37;;
13485;SDS011;6815;59.336;17.998;2023-03-14T08:04:17;2.50;;;0.70;;
13485;SDS011;6815;59.336;17.998;2023-03-14T08:06:42;2.73;;;0.43;;
13485;SDS011;6815;59.336;17.998;2023-03-14T08:09:07;2.40;;;0.67;;
13485;SDS011;6815;59.336;17.998;2023-03-14T08:11:33;1.27;;;0.60;;
13485;SDS011;6815;59.336;17.998;2023-03-14T08:13:59;1.63;;;0.53;;
13485;SDS011;6815;59.336;17.998;2023-03-14T08:16:24;0.53;;;0.47;;
13485;SDS011;6815;59.336;17.998;2023-03-14T08:18:50;1.27;;;0.60;;
13485;SDS011;6815;59.336;17.998;2023-03-14T08:21:15;0.60;;;0.40;;
13485;SDS011;6815;59.336;17.998;2023-03-14T08:23:41;0.37;;;0.33;;
13485;SDS011;6815;59.336;17.998;2023-03-14T08:26:06;1.37;;;0.60;;
13485;SDS011;6815;59.336;17.998;2023-03-14T08:28:32;0.73;;;0.47;;
13485;SDS011;6815;59.336;17.998;2023-03-14T08:30:58;0.40;;;0.40;;
13485;SDS011;6815;59.336;17.998;2023-03-14T08:33:24;0.60;;;0.37;;
13485;SDS011;6815;59.336;17.998;2023-03-14T08:35:57;1.93;;;0.40;;
13485;SDS011;6815;59.336;17.998;2023-03-14T08:38:24;0.47;;;0.30;;
13485;SDS011;6815;59.336;17.998;2023-03-14T08:40:54;1.20;;;0.47;;
13485;SDS011;6815;59.336;17.998;2023-03-14T08:43:23;0.90;;;0.40;;
13485;SDS011;6815;59.336;17.998;2023-03-14T08:45:51;0.73;;;0.40;;
13485;SDS011;6815;59.336;17.998;2023-03-14T08:48:16;0.43;;;0.20;;
13485;SDS011;6815;59.336;17.998;2023-03-14T08:50:43;0.30;;;0.30;;
13485;SDS011;6815;59.336;17.998;2023-03-14T08:53:08;0.40;;;0.40;;
13485;SDS011;6815;59.336;17.998;2023-03-14T08:55:34;0.63;;;0.40;;
13485;SDS011;6815;59.336;17.998;2023-03-14T08:57:59;0.50;;;0.40;;
13485;SDS011;6815;59.336;17.998;2023-03-14T09:00:25;0.43;;;0.30;;
13485;SDS011;6815;59.336;17.998;2023-03-14T09:02:50;0.40;;;0.37;;
13485;SDS011;6815;59.336;17.998;2023-03-14T09:05:16;2.10;;;0.30;;
13485;SDS011;6815;59.336;17.998;2023-03-14T09:07:41;1.47;;;0.50;;
13485;SDS011;6815;59.336;17.998;2023-03-14T09:10:08;1.27;;;0.50;;
13485;SDS011;6815;59.336;17.998;2023-03-14T09:12:34;1.20;;;0.40;;
13485;SDS011;6815;59.336;17.998;2023-03-14T09:15:00;0.50;;;0.30;;
13485;SDS011;6815;59.336;17.998;2023-03-14T09:17:25;0.60;;;0.33;;
13485;SDS011;6815;59.336;17.998;2023-03-14T09:19:51;1.10;;;0.40;;
13485;SDS011;6815;59.336;17.998;2023-03-14T09:22:16;0.20;;;0.20;;
13485;SDS011;6815;59.336;17.998;2023-03-14T09:24:42;0.83;;;0.30;;
13485;SDS011;6815;59.336;17.998;2023-03-14T09:27:08;0.90;;;0.40;;
13485;SDS011;6815;59.336;17.998;2023-03-14T09:29:34;1.00;;;0.40;;
13485;SDS011;6815;59.336;17.998;2023-03-14T09:31:59;1.07;;;0.30;;
13485;SDS011;6815;59.336;17.998;2023-03-14T09:34:25;1.10;;;0.40;;
13485;SDS011;6815;59.336;17.998;2023-03-14T09:36:53;0.40;;;0.40;;
13485;SDS011;6815;59.336;17.998;2023-03-14T09:39:19;0.97;;;0.40;;
13485;SDS011;6815;59.336;17.998;2023-03-14T09:41:46;0.30;;;0.30;;
13485;SDS011;6815;59.336;17.998;2023-03-14T09:44:24;0.70;;;0.30;;
13485;SDS011;6815;59.336;17.998;2023-03-14T09:46:54;0.47;;;0.30;;
13485;SDS011;6815;59.336;17.998;2023-03-14T09:49:30;1.60;;;0.30;;
13485;SDS011;6815;59.336;17.998;2023-03-14T09:51:59;0.20;;;0.20;;
13485;SDS011;6815;59.336;17.998;2023-03-14T09:54:31;0.63;;;0.30;;
13485;SDS011;6815;59.336;17.998;2023-03-14T09:57:06;0.30;;;0.30;;
13485;SDS011;6815;59.336;17.998;2023-03-14T09:59:41;0.23;;;0.23;;
13485;SDS011;6815;59.336;17.998;2023-03-14T10:02:14;0.50;;;0.30;;
13485;SDS011;6815;59.336;17.998;2023-03-14T10:04:42;0.30;;;0.30;;
13485;SDS011;6815;59.336;17.998;2023-03-14T10:07:14;0.30;;;0.30;;
13485;SDS011;6815;59.336;17.998;2023-03-14T10:09:45;0.30;;;0.30;;
13485;SDS011;6815;59.336;17.998;2023-03-14T10:12:12;0.30;;;0.30;;
13485;SDS011;6815;59.336;17.998;2023-03-14T10:14:44;0.30;;;0.30;;
13485;SDS011;6815;59.336;17.998;2023-03-14T10:17:14;0.33;;;0.30;;
13485;SDS011;6815;59.336;17.998;2023-03-14T10:19:56;0.53;;;0.40;;
13485;SDS011;6815;59.336;17.998;2023-03-14T10:22:26;0.97;;;0.40;;
13485;SDS011;6815;59.336;17.998;2023-03-14T10:24:56;0.40;;;0.40;;
13485;SDS011;6815;59.336;17.998;2023-03-14T10:27:29;0.30;;;0.30;;
13485;SDS011;6815;59.336;17.998;2023-03-14T10:30:00;1.37;;;0.30;;
13485;SDS011;6815;59.336;17.998;2023-03-14T10:32:35;0.50;;;0.40;;
13485;SDS011;6815;59.336;17.998;2023-03-14T10:35:18;0.50;;;0.40;;
13485;SDS011;6815;59.336;17.998;2023-03-14T10:38:03;0.40;;;0.40;;
13485;SDS011;6815;59.336;17.998;2023-03-14T10:40:48;0.30;;;0.30;;
13485;SDS011;6815;59.336;17.998;2023-03-14T10:43:17;0.40;;;0.40;;
13485;SDS011;6815;59.336;17.998;2023-03-14T10:45:59;1.17;;;0.40;;
13485;SDS011;6815;59.336;17.998;2023-03-14T10:48:31;0.43;;;0.40;;
13485;SDS011;6815;59.336;17.998;2023-03-14T10:51:18;0.40;;;0.40;;
13485;SDS011;6815;59.336;17.998;2023-03-14T10:53:55;0.33;;;0.33;;
13485;SDS011;6815;59.336;17.998;2023-03-14T10:56:21;0.40;;;0.20;;
13485;SDS011;6815;59.336;17.998;2023-03-14T10:58:49;0.97;;;0.33;;
13485;SDS011;6815;59.336;17.998;2023-03-14T11:01:21;1.27;;;0.30;;
13485;SDS011;6815;59.336;17.998;2023-03-14T11:04:42;0.50;;;0.30;;
13485;SDS011;6815;59.336;17.998;2023-03-14T11:12:39;0.40;;;0.40;;
13485;SDS011;6815;59.336;17.998;2023-03-14T11:15:15;0.60;;;0.60;;
13485;SDS011;6815;59.336;17.998;2023-03-14T11:20:37;1.23;;;0.70;;
13485;SDS011;6815;59.336;17.998;2023-03-14T11:23:12;0.53;;;0.50;;
13485;SDS011;6815;59.336;17.998;2023-03-14T11:28:56;0.30;;;0.30;;
13485;SDS011;6815;59.336;17.998;2023-03-14T11:36:41;1.40;;;0.20;;
13485;SDS011;6815;59.336;17.998;2023-03-14T11:39:13;0.30;;;0.30;;
13485;SDS011;6815;59.336;17.998;2023-03-14T11:41:43;0.40;;;0.40;;
13485;SDS011;6815;59.336;17.998;2023-03-14T11:44:45;0.60;;;0.40;;
13485;SDS011;6815;59.336;17.998;2023-03-14T11:47:19;0.90;;;0.37;;
13485;SDS011;6815;59.336;17.998;2023-03-14T11:50:12;0.60;;;0.30;;
13485;SDS011;6815;59.336;17.998;2023-03-14T11:52:50;0.40;;;0.40;;
13485;SDS011;6815;59.336;17.998;2023-03-14T11:57:51;0.30;;;0.30;;
13485;SDS011;6815;59.336;17.998;2023-03-14T12:00:21;0.80;;;0.30;;
13485;SDS011;6815;59.336;17.998;2023-03-14T12:14:16;0.60;;;0.50;;
13485;SDS011;6815;59.336;17.998;2023-03-14T12:16:48;0.43;;;0.30;;
13485;SDS011;6815;59.336;17.998;2023-03-14T12:21:48;0.53;;;0.40;;
13485;SDS011;6815;59.336;17.998;2023-03-14T12:24:20;0.43;;;0.43;;
13485;SDS011;6815;59.336;17.998;2023-03-14T12:26:52;1.13;;;0.50;;
13485;SDS011;6815;59.336;17.998;2023-03-14T12:29:23;1.00;;;0.37;;
13485;SDS011;6815;59.336;17.998;2023-03-14T12:34:34;0.93;;;0.40;;
13485;SDS011;6815;59.336;17.998;2023-03-14T12:37:12;0.60;;;0.60;;
13485;SDS011;6815;59.336;17.998;2023-03-14T12:39:45;0.40;;;0.30;;
13485;SDS011;6815;59.336;17.998;2023-03-14T12:48:09;0.60;;;0.60;;
13485;SDS011;6815;59.336;17.998;2023-03-14T12:50:54;0.80;;;0.60;;
13485;SDS011;6815;59.336;17.998;2023-03-14T13:01:23;0.63;;;0.50;;
13485;SDS011;6815;59.336;17.998;2023-03-14T13:03:53;1.50;;;0.60;;
13485;SDS011;6815;59.336;17.998;2023-03-14T13:11:53;0.60;;;0.60;;
13485;SDS011;6815;59.336;17.998;2023-03-14T13:14:19;0.70;;;0.60;;
13485;SDS011;6815;59.336;17.998;2023-03-14T13:16:46;0.60;;;0.50;;
13485;SDS011;6815;59.336;17.998;2023-03-14T13:19:22;0.50;;;0.50;;
13485;SDS011;6815;59.336;17.998;2023-03-14T13:21:51;0.70;;;0.70;;
13485;SDS011;6815;59.336;17.998;2023-03-14T13:24:26;1.63;;;0.80;;
13485;SDS011;6815;59.336;17.998;2023-03-14T13:26:53;2.73;;;0.90;;
13485;SDS011;6815;59.336;17.998;2023-03-14T13:29:21;1.17;;;0.80;;
13485;SDS011;6815;59.336;17.998;2023-03-14T13:31:50;1.13;;;0.77;;
13485;SDS011;6815;59.336;17.998;2023-03-14T13:34:17;2.60;;;0.70;;
13485;SDS011;6815;59.336;17.998;2023-03-14T13:36:43;1.10;;;0.80;;
13485;SDS011;6815;59.336;17.998;2023-03-14T13:39:18;1.60;;;0.50;;
13485;SDS011;6815;59.336;17.998;2023-03-14T13:41:47;0.70;;;0.70;;
13485;SDS011;6815;59.336;17.998;2023-03-14T13:44:14;1.13;;;0.97;;
13485;SDS011;6815;59.336;17.998;2023-03-14T13:46:42;0.70;;;0.60;;
13485;SDS011;6815;59.336;17.998;2023-03-14T13:49:12;1.60;;;0.90;;
13485;SDS011;6815;59.336;17.998;2023-03-14T13:51:47;1.10;;;1.00;;
13485;SDS011;6815;59.336;17.998;2023-03-14T13:54:17;0.80;;;0.80;;
13485;SDS011;6815;59.336;17.998;2023-03-14T13:56:45;1.73;;;0.93;;
13485;SDS011;6815;59.336;17.998;2023-03-14T13:59:23;0.97;;;0.80;;
13485;SDS011;6815;59.336;17.998;2023-03-14T14:01:57;0.87;;;0.80;;
13485;SDS011;6815;59.336;17.998;2023-03-14T14:04:26;0.80;;;0.80;;
13485;SDS011;6815;59.336;17.998;2023-03-14T14:06:54;2.83;;;0.93;;
13485;SDS011;6815;59.336;17.998;2023-03-14T14:12:33;1.67;;;0.90;;
13485;SDS011;6815;59.336;17.998;2023-03-14T14:15:11;2.27;;;0.70;;
13485;SDS011;6815;59.336;17.998;2023-03-14T14:17:45;0.50;;;0.50;;
13485;SDS011;6815;59.336;17.998;2023-03-14T14:20:38;0.67;;;0.67;;
13485;SDS011;6815;59.336;17.998;2023-03-14T14:23:06;1.97;;;0.70;;
13485;SDS011;6815;59.336;17.998;2023-03-14T14:25:36;0.60;;;0.60;;
13485;SDS011;6815;59.336;17.998;2023-03-14T14:28:16;0.60;;;0.60;;
13485;SDS011;6815;59.336;17.998;2023-03-14T14:30:47;0.70;;;0.67;;
13485;SDS011;6815;59.336;17.998;2023-03-14T14:33:27;1.13;;;0.70;;
13485;SDS011;6815;59.336;17.998;2023-03-14T14:35:58;0.70;;;0.63;;
13485;SDS011;6815;59.336;17.998;2023-03-14T14:38:25;0.83;;;0.80;;
13485;SDS011;6815;59.336;17.998;2023-03-14T14:40:53;0.43;;;0.43;;
13485;SDS011;6815;59.336;17.998;2023-03-14T14:43:24;0.70;;;0.60;;
13485;SDS011;6815;59.336;17.998;2023-03-14T14:45:53;0.93;;;0.60;;
13485;SDS011;6815;59.336;17.998;2023-03-14T14:48:22;1.27;;;0.70;;
13485;SDS011;6815;59.336;17.998;2023-03-14T14:50:56;0.67;;;0.63;;
13485;SDS011;6815;59.336;17.998;2023-03-14T14:53:28;2.03;;;0.90;;
13485;SDS011;6815;59.336;17.998;2023-03-14T14:55:59;1.73;;;0.70;;
13485;SDS011;6815;59.336;17.998;2023-03-14T15:01:10;0.77;;;0.60;;
13485;SDS011;6815;59.336;17.998;2023-03-14T15:03:41;0.70;;;0.70;;
13485;SDS011;6815;59.336;17.998;2023-03-14T15:06:08;0.87;;;0.87;;
13485;SDS011;6815;59.336;17.998;2023-03-14T15:08:37;0.93;;;0.80;;
13485;SDS011;6815;59.336;17.998;2023-03-14T15:11:03;0.70;;;0.60;;
13485;SDS011;6815;59.336;17.998;2023-03-14T15:13:28;0.90;;;0.80;;
13485;SDS011;6815;59.336;17.998;2023-03-14T15:15:54;1.40;;;0.93;;
13485;SDS011;6815;59.336;17.998;2023-03-14T15:18:23;1.80;;;1.00;;
13485;SDS011;6815;59.336;17.998;2023-03-14T15:20:49;1.00;;;0.90;;
13485;SDS011;6815;59.336;17.998;2023-03-14T15:23:16;2.37;;;1.13;;
13485;SDS011;6815;59.336;17.998;2023-03-14T15:25:43;1.10;;;1.00;;
13485;SDS011;6815;59.336;17.998;2023-03-14T15:28:20;1.27;;;0.90;;
13485;SDS011;6815;59.336;17.998;2023-03-14T15:30:48;1.07;;;0.97;;
13485;SDS011;6815;59.336;17.998;2023-03-14T15:33:15;1.00;;;0.90;;
13485;SDS011;6815;59.336;17.998;2023-03-14T15:35:41;3.33;;;1.00;;
13485;SDS011;6815;59.336;17.998;2023-03-14T15:38:11;1.10;;;1.00;;
13485;SDS011;6815;59.336;17.998;2023-03-14T15:40:38;1.77;;;1.13;;
13485;SDS011;6815;59.336;17.998;2023-03-14T15:43:05;1.10;;;1.00;;
13485;SDS011;6815;59.336;17.998;2023-03-14T15:45:30;1.03;;;0.93;;
13485;SDS011;6815;59.336;17.998;2023-03-14T15:47:56;1.53;;;1.27;;
13485;SDS011;6815;59.336;17.998;2023-03-14T15:50:21;2.30;;;1.30;;
13485;SDS011;6815;59.336;17.998;2023-03-14T15:52:47;1.43;;;1.00;;
13485;SDS011;6815;59.336;17.998;2023-03-14T15:55:13;1.53;;;0.90;;
13485;SDS011;6815;59.336;17.998;2023-03-14T15:57:40;1.30;;;1.00;;
13485;SDS011;6815;59.336;17.998;2023-03-14T16:00:08;1.80;;;0.90;;
13485;SDS011;6815;59.336;17.998;2023-03-14T16:02:39;0.83;;;0.70;;
13485;SDS011;6815;59.336;17.998;2023-03-14T16:05:06;1.20;;;0.73;;